createdAt,value
2019-05-16T00:03:14.125Z,2.97
2019-05-16T00:07:19.216Z,2.17
2019-05-16T00:11:22.022Z,2.87
2019-05-16T00:15:25.030Z,2.47
2019-05-16T00:19:28.795Z,2.97
2019-05-16T00:23:33.702Z,2.40
2019-05-16T00:27:38.630Z,2.73
2019-05-16T00:31:41.633Z,2.50
2019-05-16T00:35:44.670Z,2.70
2019-05-16T00:39:48.271Z,3.13
2019-05-16T00:43:51.358Z,2.50
2019-05-16T00:47:54.361Z,2.90
2019-05-16T00:51:58.481Z,2.60
2019-05-16T00:56:02.251Z,2.20
2019-05-16T01:00:08.247Z,2.53
2019-05-16T01:04:11.599Z,3.10
2019-05-16T01:08:14.823Z,2.63
2019-05-16T01:12:17.901Z,2.23
2019-05-16T01:16:20.915Z,2.60
2019-05-16T01:20:23.935Z,2.60
2019-05-16T01:24:29.256Z,2.10
2019-05-16T01:28:32.539Z,2.20
2019-05-16T01:32:35.538Z,3.20
2019-05-16T01:36:40.762Z,2.67
2019-05-16T01:40:43.467Z,2.53
2019-05-16T01:44:48.574Z,3.13
2019-05-16T01:48:51.400Z,2.73
2019-05-16T01:52:54.391Z,2.57
2019-05-16T01:56:59.414Z,2.80
2019-05-16T02:01:12.351Z,3.33
2019-05-16T02:05:08.252Z,2.83
2019-05-16T02:09:11.786Z,3.07
2019-05-16T02:13:14.879Z,2.70
2019-05-16T02:17:18.517Z,3.07
2019-05-16T02:21:21.582Z,2.33
2019-05-16T02:25:27.668Z,3.07
2019-05-16T02:29:30.787Z,2.80
2019-05-16T02:33:33.788Z,2.90
2019-05-16T02:37:36.791Z,3.37
2019-05-16T02:41:45.664Z,3.03
2019-05-16T02:45:44.705Z,3.00
2019-05-16T02:49:50.323Z,2.80
2019-05-16T02:53:52.671Z,3.00
2019-05-16T02:57:55.661Z,2.90
2019-05-16T03:02:00.900Z,3.10
2019-05-16T03:06:04.251Z,2.90
2019-05-16T03:10:07.681Z,2.73
2019-05-16T03:14:12.585Z,2.50
2019-05-16T03:18:16.384Z,2.93
2019-05-16T03:22:21.985Z,2.43
2019-05-16T03:26:25.640Z,2.90
2019-05-16T03:30:34.160Z,2.43
2019-05-16T03:34:34.839Z,2.53
2019-05-16T03:38:41.088Z,2.50
2019-05-16T03:42:43.103Z,2.40
2019-05-16T03:46:46.088Z,3.03
2019-05-16T03:50:50.721Z,2.70
2019-05-16T03:54:54.029Z,2.67
2019-05-16T03:58:57.052Z,2.70
2019-05-16T04:03:01.266Z,2.80
2019-05-16T04:07:04.479Z,2.67
2019-05-16T04:11:07.463Z,2.87
2019-05-16T04:15:11.346Z,2.67
2019-05-16T04:19:11.892Z,3.07
2019-05-16T04:23:12.879Z,3.00
2019-05-16T04:27:14.503Z,2.97
2019-05-16T04:31:17.499Z,3.93
2019-05-16T04:35:21.460Z,3.00
2019-05-16T04:39:24.871Z,3.10
2019-05-16T04:43:31.339Z,2.37
2019-05-16T04:47:32.803Z,2.93
2019-05-16T04:51:36.861Z,2.20
2019-05-16T04:55:42.031Z,2.50
2019-05-16T04:59:44.882Z,2.90
2019-05-16T05:04:01.841Z,2.23
2019-05-16T05:07:52.797Z,2.57
2019-05-16T05:11:55.885Z,2.30
2019-05-16T05:16:01.401Z,2.20
2019-05-16T05:20:05.374Z,1.90
2019-05-16T05:24:10.677Z,2.33
2019-05-16T05:28:14.427Z,2.37
2019-05-16T05:32:19.856Z,2.47
2019-05-16T05:36:22.348Z,2.10
2019-05-16T05:40:25.356Z,2.53
2019-05-16T05:44:30.568Z,3.00
2019-05-16T05:48:33.307Z,2.13
2019-05-16T05:52:36.381Z,2.40
2019-05-16T05:56:39.800Z,2.40
2019-05-16T06:00:42.990Z,2.27
2019-05-16T06:04:46.020Z,3.37
2019-05-16T06:08:50.205Z,7.40
2019-05-16T06:12:53.523Z,3.73
2019-05-16T06:16:56.536Z,2.10
2019-05-16T06:21:00.452Z,3.17
2019-05-16T06:25:04.291Z,3.60
2019-05-16T06:29:10.381Z,1.93
2019-05-16T06:33:13.027Z,2.37
2019-05-16T06:37:16.045Z,2.33
2019-05-16T06:41:19.903Z,2.20
2019-05-16T06:45:23.320Z,2.13
2019-05-16T06:49:26.335Z,1.97
2019-05-16T06:53:29.946Z,1.80
2019-05-16T06:57:33.301Z,1.70
2019-05-16T07:01:36.278Z,1.90
2019-05-16T07:05:40.636Z,2.40
2019-05-16T07:09:57.153Z,2.50
2019-05-16T07:13:51.699Z,2.03
2019-05-16T07:17:51.881Z,2.70
2019-05-16T07:21:54.890Z,2.17
2019-05-16T07:26:00.575Z,1.93
2019-05-16T07:30:05.028Z,1.73
2019-05-16T07:34:10.766Z,2.30
2019-05-16T07:38:20.521Z,3.43
2019-05-16T07:42:23.753Z,2.20
2019-05-16T07:46:26.827Z,2.93
2019-05-16T07:50:30.118Z,2.37
2019-05-16T07:54:34.544Z,2.00
2019-05-16T07:58:37.754Z,2.10
2019-05-16T08:02:41.917Z,2.40
2019-05-16T08:06:47.094Z,2.10
2019-05-16T08:10:50.982Z,2.57
2019-05-16T08:14:54.223Z,2.27
2019-05-16T08:18:57.303Z,1.73
2019-05-16T08:23:00.951Z,2.13
2019-05-16T08:27:05.098Z,2.47
2019-05-16T08:31:11.760Z,3.00
2019-05-16T08:35:14.039Z,2.53
2019-05-16T08:39:17.030Z,2.53
2019-05-16T08:47:24.934Z,2.00
2019-05-16T08:51:32.808Z,2.80
2019-05-16T08:55:33.175Z,3.80
2019-05-16T08:59:36.252Z,2.47
2019-05-16T09:03:41.602Z,3.50
2019-05-16T09:07:44.164Z,2.30
2019-05-16T09:10:31.603Z,2.10
2019-05-16T09:11:49.622Z,2.07
2019-05-16T09:15:52.725Z,2.97
2019-05-16T09:19:57.673Z,2.47
2019-05-16T09:24:00.645Z,2.10
2019-05-16T09:28:03.662Z,2.30
2019-05-16T09:32:21.246Z,2.17
2019-05-16T09:36:13.461Z,2.53
2019-05-16T09:40:17.610Z,2.77
2019-05-16T09:44:20.765Z,3.03
2019-05-16T09:48:23.884Z,3.10
2019-05-16T09:52:27.317Z,2.53
2019-05-16T09:56:30.610Z,2.60
2019-05-16T10:00:33.817Z,2.10
2019-05-16T10:04:37.967Z,2.30
2019-05-16T10:08:41.053Z,2.17
2019-05-16T10:12:44.265Z,2.93
2019-05-16T10:16:47.868Z,1.97
2019-05-16T10:20:51.191Z,2.10
2019-05-16T10:24:54.277Z,1.83
2019-05-16T10:28:57.987Z,3.03
2019-05-16T10:33:02.704Z,2.37
2019-05-16T10:37:05.809Z,3.13
2019-05-16T10:41:09.053Z,2.93
2019-05-16T10:45:12.425Z,4.30
2019-05-16T10:49:16.682Z,2.60
2019-05-16T10:53:50.200Z,2.77
2019-05-16T10:57:29.395Z,3.33
2019-05-16T11:01:31.272Z,2.87
2019-05-16T11:05:38.865Z,3.37
2019-05-16T11:09:47.663Z,2.80
2019-05-16T11:13:47.112Z,2.20
2019-05-16T11:17:49.731Z,2.70
2019-05-16T11:21:52.889Z,2.63
2019-05-16T11:25:58.389Z,3.30
2019-05-16T11:30:01.701Z,3.03
2019-05-16T11:34:05.267Z,2.90
2019-05-16T11:38:08.428Z,3.27
2019-05-16T11:42:11.558Z,2.80
2019-05-16T11:46:14.812Z,3.30
2019-05-16T11:50:18.344Z,3.47
2019-05-16T11:54:21.401Z,3.40
2019-05-16T11:58:26.677Z,3.50
2019-05-16T12:02:29.565Z,3.53
2019-05-16T12:06:32.678Z,3.33
2019-05-16T12:10:36.340Z,3.57
2019-05-16T12:14:39.668Z,3.30
2019-05-16T12:18:42.875Z,3.37
2019-05-16T12:22:46.344Z,3.30
2019-05-16T12:26:49.379Z,4.00
2019-05-16T12:30:52.474Z,3.40
2019-05-16T12:34:57.316Z,3.93
2019-05-16T12:39:00.377Z,3.60
2019-05-16T12:43:03.556Z,3.43
2019-05-16T12:47:07.572Z,3.60
2019-05-16T12:51:10.936Z,3.60
2019-05-16T12:55:16.609Z,3.30
2019-05-16T12:59:21.662Z,3.70
2019-05-16T13:03:27.529Z,3.10
2019-05-16T13:07:29.486Z,4.13
2019-05-16T13:11:32.583Z,4.37
2019-05-16T13:15:38.267Z,4.10
2019-05-16T13:19:44.314Z,3.20
2019-05-16T13:23:46.720Z,4.00
2019-05-16T13:27:50.202Z,3.50
2019-05-16T13:31:53.302Z,3.87
2019-05-16T13:35:59.071Z,3.57
2019-05-16T13:40:07.854Z,2.93
2019-05-16T13:44:18.390Z,3.00
2019-05-16T13:48:17.454Z,3.60
2019-05-16T13:52:20.739Z,3.30
2019-05-16T13:56:23.845Z,3.63
2019-05-16T14:00:27.913Z,3.73
2019-05-16T14:04:31.232Z,4.53
2019-05-16T14:08:37.073Z,3.67
2019-05-16T14:12:39.504Z,4.03
2019-05-16T14:16:42.622Z,3.30
2019-05-16T14:20:46.638Z,3.40
2019-05-16T14:24:49.905Z,3.10
2019-05-16T14:28:53.173Z,3.50
2019-05-16T14:33:01.580Z,2.23
2019-05-16T14:37:02.863Z,2.93
2019-05-16T14:41:08.021Z,3.07
2019-05-16T14:45:17.007Z,3.57
2019-05-16T14:49:20.314Z,3.53
2019-05-16T14:53:23.441Z,3.97
2019-05-16T14:57:27.375Z,3.33
2019-05-16T15:01:30.640Z,4.37
2019-05-16T15:05:33.722Z,3.83
2019-05-16T15:09:38.029Z,3.40
2019-05-16T15:13:41.501Z,4.37
2019-05-16T15:17:47.385Z,4.30
2019-05-16T15:21:50.798Z,5.17
2019-05-16T15:25:54.017Z,4.90
2019-05-16T15:29:57.736Z,4.50
2019-05-16T15:34:00.992Z,5.10
2019-05-16T15:38:07.945Z,5.77
2019-05-16T15:42:11.276Z,3.50
2019-05-16T15:46:14.452Z,4.07
2019-05-16T15:50:18.379Z,4.50
2019-05-16T15:54:23.427Z,3.77
2019-05-16T15:58:26.771Z,4.00
2019-05-16T16:02:30.025Z,4.43
2019-05-16T16:06:33.260Z,4.33
2019-05-16T16:10:38.101Z,3.77
2019-05-16T16:14:41.291Z,3.53
2019-05-16T16:18:46.705Z,3.90
2019-05-16T16:22:49.410Z,3.77
2019-05-16T16:26:52.550Z,3.20
2019-05-16T16:30:56.899Z,5.10
2019-05-16T16:35:01.464Z,4.23
2019-05-16T16:39:07.473Z,4.43
2019-05-16T16:43:11.045Z,4.73
2019-05-16T16:47:14.179Z,3.90
2019-05-16T16:51:17.794Z,4.60
2019-05-16T16:55:21.108Z,4.60
2019-05-16T16:59:24.103Z,4.40
2019-05-16T17:03:27.348Z,4.60
2019-05-16T17:07:30.523Z,5.10
2019-05-16T17:11:33.519Z,4.70
2019-05-16T17:15:37.527Z,5.20
2019-05-16T17:19:40.516Z,4.67
2019-05-16T17:23:43.698Z,5.17
2019-05-16T17:27:46.905Z,6.10
2019-05-16T17:31:55.605Z,4.30
2019-05-16T17:35:54.911Z,3.50
2019-05-16T17:39:59.575Z,4.13
2019-05-16T17:44:02.885Z,4.37
2019-05-16T17:48:06.717Z,4.60
2019-05-16T17:52:10.652Z,4.13
2019-05-16T17:56:13.726Z,3.67
2019-05-16T18:00:25.011Z,3.93
2019-05-16T18:04:22.328Z,4.37
2019-05-16T18:08:25.426Z,3.43
2019-05-16T18:12:28.422Z,2.73
2019-05-16T18:16:31.454Z,3.63
2019-05-16T18:20:36.990Z,5.40
2019-05-16T18:24:39.414Z,4.00
2019-05-16T18:28:42.631Z,4.70
2019-05-16T18:32:45.639Z,4.07
2019-05-16T18:36:48.636Z,2.87
2019-05-16T18:40:52.136Z,3.10
2019-05-16T18:44:56.573Z,2.90
2019-05-16T18:48:59.649Z,3.10
2019-05-16T18:53:02.658Z,4.40
2019-05-16T18:57:07.051Z,3.43
2019-05-16T19:01:10.667Z,4.07
2019-05-16T19:05:13.880Z,4.40
2019-05-16T19:09:16.968Z,4.80
2019-05-16T19:13:19.978Z,4.40
2019-05-16T19:17:24.850Z,5.40
2019-05-16T19:21:28.253Z,5.40
2019-05-16T19:25:31.380Z,6.40
2019-05-16T19:29:36.673Z,6.00
2019-05-16T19:33:39.391Z,9.00
2019-05-16T19:37:42.362Z,11.47
2019-05-16T19:41:46.664Z,6.70
2019-05-16T19:45:49.769Z,6.40
2019-05-16T19:49:52.865Z,7.10
2019-05-16T19:53:56.570Z,7.60
2019-05-16T19:57:59.845Z,10.40
2019-05-16T20:02:03.652Z,9.20
2019-05-16T20:06:07.499Z,8.87
2019-05-16T20:10:11.112Z,6.87
2019-05-16T20:14:16.494Z,7.00
2019-05-16T20:18:19.040Z,6.23
2019-05-16T20:22:22.147Z,8.90
2019-05-16T20:26:27.238Z,8.70
2019-05-16T20:30:30.160Z,8.13
2019-05-16T20:34:33.156Z,9.30
2019-05-16T20:38:37.219Z,8.77
2019-05-16T20:42:41.826Z,8.40
2019-05-16T20:46:50.769Z,8.83
2019-05-16T20:50:56.466Z,10.03
2019-05-16T20:54:58.927Z,8.80
2019-05-16T20:59:03.228Z,8.70
2019-05-16T21:03:07.079Z,14.00
2019-05-16T21:07:11.358Z,10.17
2019-05-16T21:11:17.015Z,10.20
2019-05-16T21:15:19.426Z,10.77
2019-05-16T21:19:22.424Z,11.13
2019-05-16T21:23:27.483Z,11.20
2019-05-16T21:27:30.352Z,12.60
2019-05-16T21:31:33.360Z,10.70
2019-05-16T21:35:36.565Z,10.83
2019-05-16T21:39:39.661Z,12.17
2019-05-16T21:43:43.477Z,12.20
2019-05-16T21:47:47.023Z,12.33
2019-05-16T21:51:50.200Z,12.77
2019-05-16T21:55:53.208Z,12.40
2019-05-16T21:59:57.201Z,12.47
2019-05-16T22:04:00.519Z,12.20
2019-05-16T22:08:03.643Z,12.97
2019-05-16T22:12:06.858Z,12.80
2019-05-16T22:16:09.954Z,13.60
2019-05-16T22:20:13.663Z,12.60
2019-05-16T22:24:17.193Z,12.90
2019-05-16T22:28:20.382Z,13.83
2019-05-16T22:32:23.384Z,13.57
2019-05-16T22:36:26.659Z,13.37
2019-05-16T22:40:29.801Z,15.00
2019-05-16T22:44:34.244Z,14.77
2019-05-16T22:48:37.339Z,13.73
2019-05-16T22:52:40.349Z,14.20
2019-05-16T22:56:43.349Z,15.23
2019-05-16T23:00:46.544Z,13.53
2019-05-16T23:04:49.548Z,17.03
2019-05-16T23:08:52.548Z,14.73
2019-05-16T23:12:57.207Z,14.80
2019-05-16T23:17:00.355Z,12.93
2019-05-16T23:21:03.356Z,13.17
2019-05-16T23:25:06.798Z,13.40
2019-05-16T23:29:09.978Z,14.63
2019-05-16T23:33:12.976Z,14.30
2019-05-16T23:37:15.990Z,13.80
2019-05-16T23:41:18.992Z,13.50
2019-05-16T23:45:22.869Z,13.07
2019-05-16T23:49:27.508Z,12.40
2019-05-16T23:53:30.709Z,13.67
2019-05-16T23:57:33.710Z,13.43
